sensor_id;sensor_type;location;lat;lon;timestamp;pressure;altitude;pressure_sealevel;temperature;humidity
17635;BME280;8936;49.010;12.120;2022-07-29T00:00:18;97730.84;;;26.18;54.39
17635;BME280;8936;49.010;12.120;2022-07-29T00:02:45;97740.09;;;26.36;54.36
17635;BME280;8936;49.010;12.120;2022-07-29T00:05:11;97736.75;;;26.79;53.20
17635;BME280;8936;49.010;12.120;2022-07-29T00:07:38;97738.28;;;27.07;52.58
17635;BME280;8936;49.010;12.120;2022-07-29T00:10:05;97731.38;;;27.20;52.31
17635;BME280;8936;49.010;12.120;2022-07-29T00:12:31;97732.66;;;27.33;51.93
17635;BME280;8936;49.010;12.120;2022-07-29T00:14:58;97731.53;;;27.38;51.53
17635;BME280;8936;49.010;12.120;2022-07-29T00:17:25;97724.00;;;27.27;51.42
17635;BME280;8936;49.010;12.120;2022-07-29T00:19:52;97729.97;;;27.00;51.71
17635;BME280;8936;49.010;12.120;2022-07-29T00:22:18;97726.44;;;26.69;52.68
17635;BME280;8936;49.010;12.120;2022-07-29T00:24:44;97723.63;;;26.33;53.26
17635;BME280;8936;49.010;12.120;2022-07-29T00:27:12;97718.81;;;26.26;53.91
17635;BME280;8936;49.010;12.120;2022-07-29T00:29:39;97721.41;;;26.75;53.04
17635;BME280;8936;49.010;12.120;2022-07-29T00:32:05;97714.97;;;26.90;52.65
17635;BME280;8936;49.010;12.120;2022-07-29T00:34:33;97724.53;;;27.03;52.27
17635;BME280;8936;49.010;12.120;2022-07-29T00:37:17;97725.41;;;27.11;51.98
17635;BME280;8936;49.010;12.120;2022-07-29T00:39:43;97720.72;;;27.15;51.93
17635;BME280;8936;49.010;12.120;2022-07-29T00:42:10;97724.66;;;27.17;51.83
17635;BME280;8936;49.010;12.120;2022-07-29T00:44:36;97712.19;;;27.20;51.63
17635;BME280;8936;49.010;12.120;2022-07-29T00:47:03;97702.75;;;27.21;51.62
17635;BME280;8936;49.010;12.120;2022-07-29T00:49:29;97713.81;;;26.91;51.80
17635;BME280;8936;49.010;12.120;2022-07-29T00:51:57;97716.66;;;26.98;52.23
17635;BME280;8936;49.010;12.120;2022-07-29T00:54:23;97712.97;;;27.24;51.47
17635;BME280;8936;49.010;12.120;2022-07-29T00:56:51;97722.13;;;27.35;51.31
17635;BME280;8936;49.010;12.120;2022-07-29T00:59:18;97719.03;;;27.40;51.34
17635;BME280;8936;49.010;12.120;2022-07-29T01:01:44;97714.28;;;27.37;51.25
17635;BME280;8936;49.010;12.120;2022-07-29T01:04:10;97714.28;;;27.37;51.25
17635;BME280;8936;49.010;12.120;2022-07-29T01:06:37;97706.53;;;27.43;51.17
17635;BME280;8936;49.010;12.120;2022-07-29T01:09:04;97706.06;;;27.37;51.15
17635;BME280;8936;49.010;12.120;2022-07-29T01:11:31;97706.81;;;27.34;51.01
17635;BME280;8936;49.010;12.120;2022-07-29T01:13:59;97707.25;;;27.40;51.03
17635;BME280;8936;49.010;12.120;2022-07-29T01:16:27;97691.59;;;27.40;51.00
17635;BME280;8936;49.010;12.120;2022-07-29T01:18:58;97690.25;;;27.23;51.16
17635;BME280;8936;49.010;12.120;2022-07-29T01:21:37;97685.63;;;26.91;51.53
17635;BME280;8936;49.010;12.120;2022-07-29T01:26:54;97690.91;;;27.10;51.50
17635;BME280;8936;49.010;12.120;2022-07-29T01:29:25;97681.59;;;27.18;51.30
17635;BME280;8936;49.010;12.120;2022-07-29T01:31:54;97685.56;;;27.24;51.10
17635;BME280;8936;49.010;12.120;2022-07-29T01:34:23;97682.03;;;27.23;51.15
17635;BME280;8936;49.010;12.120;2022-07-29T01:36:52;97680.06;;;27.24;51.25
17635;BME280;8936;49.010;12.120;2022-07-29T01:39:23;97676.19;;;27.25;51.05
17635;BME280;8936;49.010;12.120;2022-07-29T01:41:54;97673.56;;;26.99;51.40
17635;BME280;8936;49.010;12.120;2022-07-29T01:44:24;97671.41;;;26.48;52.40
17635;BME280;8936;49.010;12.120;2022-07-29T01:46:55;97666.31;;;26.17;53.33
17635;BME280;8936;49.010;12.120;2022-07-29T01:49:24;97667.50;;;26.49;53.03
17635;BME280;8936;49.010;12.120;2022-07-29T01:51:52;97661.78;;;26.61;52.79
17635;BME280;8936;49.010;12.120;2022-07-29T01:54:21;97661.94;;;26.42;52.88
17635;BME280;8936;49.010;12.120;2022-07-29T01:56:51;97659.94;;;26.13;53.95
17635;BME280;8936;49.010;12.120;2022-07-29T01:59:18;97658.78;;;26.40;53.42
17635;BME280;8936;49.010;12.120;2022-07-29T02:01:45;97659.72;;;26.51;53.39
17635;BME280;8936;49.010;12.120;2022-07-29T02:04:14;97648.09;;;26.61;53.01
17635;BME280;8936;49.010;12.120;2022-07-29T02:06:41;97646.50;;;26.60;53.13
17635;BME280;8936;49.010;12.120;2022-07-29T02:09:08;97639.53;;;26.66;53.20
17635;BME280;8936;49.010;12.120;2022-07-29T02:11:36;97651.78;;;26.43;53.54
17635;BME280;8936;49.010;12.120;2022-07-29T02:14:03;97651.69;;;26.36;53.80
17635;BME280;8936;49.010;12.120;2022-07-29T02:16:30;97648.75;;;26.51;53.62
17635;BME280;8936;49.010;12.120;2022-07-29T02:18:58;97654.09;;;26.41;53.89
17635;BME280;8936;49.010;12.120;2022-07-29T02:21:28;97654.84;;;26.38;53.87
17635;BME280;8936;49.010;12.120;2022-07-29T02:23:55;97650.59;;;26.14;54.86
17635;BME280;8936;49.010;12.120;2022-07-29T02:26:24;97646.59;;;26.08;55.04
17635;BME280;8936;49.010;12.120;2022-07-29T02:28:52;97656.06;;;25.88;56.11
17635;BME280;8936;49.010;12.120;2022-07-29T02:31:21;97655.28;;;25.61;57.03
17635;BME280;8936;49.010;12.120;2022-07-29T02:33:49;97660.44;;;25.66;57.16
17635;BME280;8936;49.010;12.120;2022-07-29T02:36:16;97666.56;;;25.82;56.64
17635;BME280;8936;49.010;12.120;2022-07-29T02:38:44;97662.78;;;25.90;56.65
17635;BME280;8936;49.010;12.120;2022-07-29T02:41:17;97670.81;;;25.80;56.92
17635;BME280;8936;49.010;12.120;2022-07-29T02:43:45;97667.56;;;25.70;57.19
17635;BME280;8936;49.010;12.120;2022-07-29T02:46:14;97661.88;;;26.09;56.42
17635;BME280;8936;49.010;12.120;2022-07-29T02:48:43;97657.75;;;26.22;55.71
17635;BME280;8936;49.010;12.120;2022-07-29T02:51:17;97654.72;;;26.30;55.60
17635;BME280;8936;49.010;12.120;2022-07-29T02:53:45;97655.78;;;25.93;56.31
17635;BME280;8936;49.010;12.120;2022-07-29T02:56:15;97660.72;;;25.84;57.03
17635;BME280;8936;49.010;12.120;2022-07-29T02:58:44;97647.69;;;26.03;56.36
17635;BME280;8936;49.010;12.120;2022-07-29T03:01:13;97662.63;;;26.36;55.60
17635;BME280;8936;49.010;12.120;2022-07-29T03:03:41;97655.44;;;26.54;55.21
17635;BME280;8936;49.010;12.120;2022-07-29T03:06:08;97651.66;;;26.65;54.89
17635;BME280;8936;49.010;12.120;2022-07-29T03:08:35;97657.91;;;26.66;54.82
17635;BME280;8936;49.010;12.120;2022-07-29T03:11:03;97652.72;;;26.57;54.93
17635;BME280;8936;49.010;12.120;2022-07-29T03:13:30;97651.25;;;26.63;54.72
17635;BME280;8936;49.010;12.120;2022-07-29T03:15:57;97657.97;;;26.69;54.57
17635;BME280;8936;49.010;12.120;2022-07-29T03:18:23;97658.03;;;26.76;54.47
17635;BME280;8936;49.010;12.120;2022-07-29T03:20:50;97655.72;;;26.78;54.26
17635;BME280;8936;49.010;12.120;2022-07-29T03:23:18;97657.72;;;26.81;54.12
17635;BME280;8936;49.010;12.120;2022-07-29T03:25:44;97657.72;;;26.81;54.21
17635;BME280;8936;49.010;12.120;2022-07-29T03:28:12;97660.09;;;26.83;54.30
17635;BME280;8936;49.010;12.120;2022-07-29T03:30:39;97658.13;;;26.83;54.29
17635;BME280;8936;49.010;12.120;2022-07-29T03:33:05;97664.84;;;26.86;54.26
17635;BME280;8936;49.010;12.120;2022-07-29T03:35:31;97660.50;;;26.85;54.04
17635;BME280;8936;49.010;12.120;2022-07-29T03:37:58;97656.72;;;26.63;54.64
17635;BME280;8936;49.010;12.120;2022-07-29T03:40:25;97659.88;;;25.80;56.29
17635;BME280;8936;49.010;12.120;2022-07-29T03:42:54;97655.78;;;25.93;56.73
17635;BME280;8936;49.010;12.120;2022-07-29T03:45:22;97651.50;;;26.21;55.94
17635;BME280;8936;49.010;12.120;2022-07-29T03:47:51;97652.53;;;26.40;55.38
17635;BME280;8936;49.010;12.120;2022-07-29T03:50:18;97667.19;;;26.54;55.07
17635;BME280;8936;49.010;12.120;2022-07-29T03:52:46;97657.88;;;26.62;54.75
17635;BME280;8936;49.010;12.120;2022-07-29T03:55:13;97665.78;;;26.67;54.65
17635;BME280;8936;49.010;12.120;2022-07-29T03:57:40;97673.25;;;26.70;54.60
17635;BME280;8936;49.010;12.120;2022-07-29T04:00:07;97675.22;;;26.73;54.35
17635;BME280;8936;49.010;12.120;2022-07-29T04:02:35;97669.38;;;26.75;54.29
17635;BME280;8936;49.010;12.120;2022-07-29T04:05:02;97675.63;;;26.75;54.22
17635;BME280;8936;49.010;12.120;2022-07-29T04:07:28;97680.72;;;26.73;54.19
17635;BME280;8936;49.010;12.120;2022-07-29T04:09:55;97678.34;;;26.72;54.14
17635;BME280;8936;49.010;12.120;2022-07-29T04:12:21;97690.84;;;26.69;54.09
17635;BME280;8936;49.010;12.120;2022-07-29T04:14:47;97693.13;;;26.64;53.94
17635;BME280;8936;49.010;12.120;2022-07-29T04:17:15;97690.34;;;26.60;53.91
17635;BME280;8936;49.010;12.120;2022-07-29T04:19:43;97695.84;;;26.64;54.04
17635;BME280;8936;49.010;12.120;2022-07-29T04:22:09;97694.66;;;26.61;53.89
17635;BME280;8936;49.010;12.120;2022-07-29T04:24:36;97697.75;;;26.60;54.13
17635;BME280;8936;49.010;12.120;2022-07-29T04:27:02;97703.09;;;26.49;53.93
17635;BME280;8936;49.010;12.120;2022-07-29T04:29:28;97702.03;;;26.57;54.30
17635;BME280;8936;49.010;12.120;2022-07-29T04:31:55;97707.88;;;26.56;54.38
17635;BME280;8936;49.010;12.120;2022-07-29T04:34:21;97706.66;;;26.53;54.54
17635;BME280;8936;49.010;12.120;2022-07-29T04:36:49;97701.19;;;26.53;54.60
17635;BME280;8936;49.010;12.120;2022-07-29T04:39:15;97710.50;;;26.45;55.06
17635;BME280;8936;49.010;12.120;2022-07-29T04:41:43;97709.34;;;26.50;55.08
17635;BME280;8936;49.010;12.120;2022-07-29T04:44:09;97717.97;;;26.48;55.15
17635;BME280;8936;49.010;12.120;2022-07-29T04:46:36;97716.31;;;26.44;55.42
17635;BME280;8936;49.010;12.120;2022-07-29T04:49:02;97713.59;;;26.44;55.44
17635;BME280;8936;49.010;12.120;2022-07-29T04:51:29;97705.00;;;26.45;55.21
17635;BME280;8936;49.010;12.120;2022-07-29T04:53:56;97714.75;;;26.43;55.30
17635;BME280;8936;49.010;12.120;2022-07-29T04:56:23;97708.94;;;26.48;55.13
17635;BME280;8936;49.010;12.120;2022-07-29T04:58:49;97708.63;;;26.23;55.18
17635;BME280;8936;49.010;12.120;2022-07-29T05:01:15;97712.50;;;26.22;55.58
17635;BME280;8936;49.010;12.120;2022-07-29T05:03:42;97715.03;;;26.34;55.29
17635;BME280;8936;49.010;12.120;2022-07-29T05:06:09;97711.22;;;26.42;55.18
17635;BME280;8936;49.010;12.120;2022-07-29T05:08:35;97708.91;;;26.44;54.82
17635;BME280;8936;49.010;12.120;2022-07-29T05:11:03;97719.50;;;26.19;55.12
17635;BME280;8936;49.010;12.120;2022-07-29T05:13:30;97724.75;;;26.05;55.53
17635;BME280;8936;49.010;12.120;2022-07-29T05:15:56;97733.00;;;25.83;55.63
17635;BME280;8936;49.010;12.120;2022-07-29T05:18:23;97725.53;;;25.34;56.74
17635;BME280;8936;49.010;12.120;2022-07-29T05:20:49;97720.38;;;24.71;58.41
17635;BME280;8936;49.010;12.120;2022-07-29T05:23:16;97718.38;;;24.68;59.23
17635;BME280;8936;49.010;12.120;2022-07-29T05:25:42;97727.31;;;24.85;59.20
17635;BME280;8936;49.010;12.120;2022-07-29T05:28:10;97722.03;;;24.57;60.05
17635;BME280;8936;49.010;12.120;2022-07-29T05:30:36;97732.38;;;25.24;59.04
17635;BME280;8936;49.010;12.120;2022-07-29T05:33:02;97736.69;;;25.48;58.13
17635;BME280;8936;49.010;12.120;2022-07-29T05:35:29;97723.94;;;25.78;57.29
17635;BME280;8936;49.010;12.120;2022-07-29T05:37:55;97725.25;;;25.88;56.85
17635;BME280;8936;49.010;12.120;2022-07-29T05:40:21;97727.06;;;26.03;56.20
17635;BME280;8936;49.010;12.120;2022-07-29T05:42:48;97732.19;;;26.05;56.36
17635;BME280;8936;49.010;12.120;2022-07-29T05:45:15;97723.34;;;26.15;55.99
17635;BME280;8936;49.010;12.120;2022-07-29T05:47:42;97738.06;;;26.07;56.09
17635;BME280;8936;49.010;12.120;2022-07-29T05:50:08;97729.38;;;26.01;56.14
17635;BME280;8936;49.010;12.120;2022-07-29T05:52:34;97734.00;;;25.97;55.95
17635;BME280;8936;49.010;12.120;2022-07-29T05:55:01;97731.84;;;26.10;55.73
17635;BME280;8936;49.010;12.120;2022-07-29T05:57:30;97734.00;;;26.20;55.40
17635;BME280;8936;49.010;12.120;2022-07-29T05:59:57;97724.09;;;26.12;55.31
17635;BME280;8936;49.010;12.120;2022-07-29T06:02:25;97732.72;;;26.14;55.12
17635;BME280;8936;49.010;12.120;2022-07-29T06:04:51;97736.78;;;25.74;55.00
17635;BME280;8936;49.010;12.120;2022-07-29T06:07:17;97732.47;;;25.73;55.68
17635;BME280;8936;49.010;12.120;2022-07-29T06:09:44;97735.88;;;25.67;55.70
17635;BME280;8936;49.010;12.120;2022-07-29T06:12:10;97732.13;;;25.52;56.09
17635;BME280;8936;49.010;12.120;2022-07-29T06:14:36;97729.59;;;25.02;57.59
17635;BME280;8936;49.010;12.120;2022-07-29T06:17:03;97734.25;;;25.01;58.44
17635;BME280;8936;49.010;12.120;2022-07-29T06:19:33;97734.00;;;25.29;57.86
17635;BME280;8936;49.010;12.120;2022-07-29T06:21:59;97738.25;;;25.68;56.98
17635;BME280;8936;49.010;12.120;2022-07-29T06:24:26;97730.47;;;25.70;56.73
17635;BME280;8936;49.010;12.120;2022-07-29T06:26:52;97731.16;;;25.45;56.76
17635;BME280;8936;49.010;12.120;2022-07-29T06:29:19;97737.66;;;25.37;57.31
17635;BME280;8936;49.010;12.120;2022-07-29T06:31:45;97736.34;;;25.08;57.68
17635;BME280;8936;49.010;12.120;2022-07-29T06:34:11;97728.56;;;25.10;57.70
17635;BME280;8936;49.010;12.120;2022-07-29T06:36:39;97736.13;;;24.78;59.04
17635;BME280;8936;49.010;12.120;2022-07-29T06:39:05;97729.69;;;24.86;59.46
17635;BME280;8936;49.010;12.120;2022-07-29T06:41:32;97741.00;;;25.27;58.33
17635;BME280;8936;49.010;12.120;2022-07-29T06:43:58;97732.94;;;25.34;57.93
17635;BME280;8936;49.010;12.120;2022-07-29T06:46:25;97738.34;;;25.75;56.93
17635;BME280;8936;49.010;12.120;2022-07-29T06:48:52;97740.72;;;25.77;56.69
17635;BME280;8936;49.010;12.120;2022-07-29T06:51:19;97752.03;;;25.53;57.44
17635;BME280;8936;49.010;12.120;2022-07-29T06:53:47;97754.88;;;25.60;57.29
17635;BME280;8936;49.010;12.120;2022-07-29T06:56:13;97759.69;;;25.89;56.63
17635;BME280;8936;49.010;12.120;2022-07-29T06:58:39;97767.88;;;26.12;55.73
17635;BME280;8936;49.010;12.120;2022-07-29T07:01:06;97769.59;;;26.20;55.59
17635;BME280;8936;49.010;12.120;2022-07-29T07:03:32;97769.16;;;26.44;55.29
17635;BME280;8936;49.010;12.120;2022-07-29T07:05:59;97773.66;;;26.59;54.85
17635;BME280;8936;49.010;12.120;2022-07-29T07:08:25;97765.75;;;26.80;54.49
17635;BME280;8936;49.010;12.120;2022-07-29T07:10:53;97764.22;;;26.83;54.52
17635;BME280;8936;49.010;12.120;2022-07-29T07:13:20;97767.03;;;26.90;54.18
17635;BME280;8936;49.010;12.120;2022-07-29T07:15:46;97764.03;;;27.02;54.09
17635;BME280;8936;49.010;12.120;2022-07-29T07:18:13;97765.06;;;27.24;53.74
17635;BME280;8936;49.010;12.120;2022-07-29T07:20:40;97771.41;;;26.95;54.44
17635;BME280;8936;49.010;12.120;2022-07-29T07:23:06;97760.91;;;27.00;54.63
17635;BME280;8936;49.010;12.120;2022-07-29T07:25:32;97757.41;;;27.03;54.62
17635;BME280;8936;49.010;12.120;2022-07-29T07:28:00;97760.97;;;26.77;55.42
17635;BME280;8936;49.010;12.120;2022-07-29T07:30:27;97770.00;;;27.08;54.98
17635;BME280;8936;49.010;12.120;2022-07-29T07:32:53;97770.56;;;26.61;55.96
17635;BME280;8936;49.010;12.120;2022-07-29T07:35:20;97776.00;;;26.57;56.37
17635;BME280;8936;49.010;12.120;2022-07-29T07:37:46;97766.47;;;26.48;57.04
17635;BME280;8936;49.010;12.120;2022-07-29T07:40:13;97758.50;;;26.95;56.73
17635;BME280;8936;49.010;12.120;2022-07-29T07:42:40;97754.34;;;27.45;55.91
17635;BME280;8936;49.010;12.120;2022-07-29T07:45:08;97750.50;;;27.97;54.44
17635;BME280;8936;49.010;12.120;2022-07-29T07:47:35;97744.41;;;28.18;54.01
17635;BME280;8936;49.010;12.120;2022-07-29T07:50:02;97749.97;;;28.32;53.72
17635;BME280;8936;49.010;12.120;2022-07-29T07:52:28;97747.53;;;28.16;54.15
17635;BME280;8936;49.010;12.120;2022-07-29T07:54:55;97751.72;;;28.00;54.34
17635;BME280;8936;49.010;12.120;2022-07-29T07:57:21;97744.91;;;28.34;54.19
17635;BME280;8936;49.010;12.120;2022-07-29T07:59:47;97744.34;;;28.11;53.88
17635;BME280;8936;49.010;12.120;2022-07-29T08:02:15;97744.56;;;27.44;55.39
17635;BME280;8936;49.010;12.120;2022-07-29T08:04:41;97747.44;;;27.58;56.14
17635;BME280;8936;49.010;12.120;2022-07-29T08:07:08;97748.13;;;27.15;56.78
17635;BME280;8936;49.010;12.120;2022-07-29T08:09:34;97744.09;;;26.72;58.50
17635;BME280;8936;49.010;12.120;2022-07-29T08:12:01;97758.34;;;26.55;59.76
17635;BME280;8936;49.010;12.120;2022-07-29T08:14:28;97751.28;;;26.83;59.01
17635;BME280;8936;49.010;12.120;2022-07-29T08:16:55;97753.63;;;27.15;58.87
17635;BME280;8936;49.010;12.120;2022-07-29T08:19:22;97754.69;;;27.80;57.20
17635;BME280;8936;49.010;12.120;2022-07-29T08:21:49;97756.50;;;27.62;56.96
17635;BME280;8936;49.010;12.120;2022-07-29T08:24:17;97746.31;;;27.63;57.20
17635;BME280;8936;49.010;12.120;2022-07-29T08:27:01;97747.13;;;28.79;54.87
17635;BME280;8936;49.010;12.120;2022-07-29T08:29:27;97751.25;;;28.45;55.81
17635;BME280;8936;49.010;12.120;2022-07-29T08:31:54;97744.59;;;27.95;57.29
17635;BME280;8936;49.010;12.120;2022-07-29T08:34:20;97748.41;;;27.80;58.08
17635;BME280;8936;49.010;12.120;2022-07-29T08:36:48;97746.84;;;27.82;58.69
17635;BME280;8936;49.010;12.120;2022-07-29T08:39:15;97749.72;;;27.97;57.58
17635;BME280;8936;49.010;12.120;2022-07-29T08:41:41;97748.22;;;28.64;57.47
17635;BME280;8936;49.010;12.120;2022-07-29T08:44:07;97755.00;;;28.84;55.90
17635;BME280;8936;49.010;12.120;2022-07-29T08:46:36;97751.16;;;29.10;55.34
17635;BME280;8936;49.010;12.120;2022-07-29T08:49:03;97754.03;;;29.42;54.86
17635;BME280;8936;49.010;12.120;2022-07-29T08:51:29;97750.09;;;28.46;56.21
17635;BME280;8936;49.010;12.120;2022-07-29T08:53:58;97754.91;;;27.61;58.84
17635;BME280;8936;49.010;12.120;2022-07-29T08:56:24;97746.84;;;27.39;60.51
17635;BME280;8936;49.010;12.120;2022-07-29T08:58:51;97764.34;;;26.94;62.26
17635;BME280;8936;49.010;12.120;2022-07-29T09:01:21;97757.28;;;26.93;65.17
17635;BME280;8936;49.010;12.120;2022-07-29T09:03:48;97757.50;;;27.10;65.10
17635;BME280;8936;49.010;12.120;2022-07-29T09:06:15;97755.88;;;27.06;64.62
17635;BME280;8936;49.010;12.120;2022-07-29T09:08:43;97750.72;;;27.01;65.68
17635;BME280;8936;49.010;12.120;2022-07-29T09:11:11;97744.09;;;27.05;66.39
17635;BME280;8936;49.010;12.120;2022-07-29T09:13:37;97753.16;;;27.43;65.02
17635;BME280;8936;49.010;12.120;2022-07-29T09:16:04;97748.84;;;27.85;63.37
17635;BME280;8936;49.010;12.120;2022-07-29T09:18:34;97745.41;;;28.57;60.35
17635;BME280;8936;49.010;12.120;2022-07-29T09:21:01;97748.53;;;28.52;59.62
17635;BME280;8936;49.010;12.120;2022-07-29T09:23:59;97752.09;;;28.02;60.37
17635;BME280;8936;49.010;12.120;2022-07-29T09:26:28;97746.31;;;27.63;61.10
17635;BME280;8936;49.010;12.120;2022-07-29T09:28:55;97743.56;;;27.26;63.51
17635;BME280;8936;49.010;12.120;2022-07-29T09:31:27;97751.84;;;27.33;63.77
17635;BME280;8936;49.010;12.120;2022-07-29T09:33:58;97746.34;;;27.29;64.50
17635;BME280;8936;49.010;12.120;2022-07-29T09:36:25;97746.41;;;27.36;66.27
17635;BME280;8936;49.010;12.120;2022-07-29T09:38:56;97738.56;;;26.98;70.12
17635;BME280;8936;49.010;12.120;2022-07-29T09:41:23;97733.84;;;26.99;70.78
17635;BME280;8936;49.010;12.120;2022-07-29T09:43:54;97731.00;;;26.88;71.02
17635;BME280;8936;49.010;12.120;2022-07-29T09:46:21;97735.88;;;27.05;70.24
17635;BME280;8936;49.010;12.120;2022-07-29T09:48:55;97737.38;;;27.36;68.37
17635;BME280;8936;49.010;12.120;2022-07-29T09:51:31;97736.59;;;27.32;68.27
17635;BME280;8936;49.010;12.120;2022-07-29T09:53:57;97734.81;;;27.50;66.02
17635;BME280;8936;49.010;12.120;2022-07-29T09:56:38;97731.47;;;27.30;66.40
17635;BME280;8936;49.010;12.120;2022-07-29T09:59:06;97739.06;;;27.44;64.53
17635;BME280;8936;49.010;12.120;2022-07-29T10:01:32;97732.97;;;27.24;65.46
17635;BME280;8936;49.010;12.120;2022-07-29T10:03:59;97729.69;;;27.49;63.49
17635;BME280;8936;49.010;12.120;2022-07-29T10:06:26;97720.97;;;27.40;63.70
17635;BME280;8936;49.010;12.120;2022-07-29T10:08:52;97718.22;;;27.80;62.65
17635;BME280;8936;49.010;12.120;2022-07-29T10:11:19;97727.00;;;28.00;61.05
17635;BME280;8936;49.010;12.120;2022-07-29T10:13:46;97718.06;;;28.06;60.53
17635;BME280;8936;49.010;12.120;2022-07-29T10:16:14;97718.59;;;28.29;60.07
17635;BME280;8936;49.010;12.120;2022-07-29T10:18:41;97705.34;;;28.49;59.76
17635;BME280;8936;49.010;12.120;2022-07-29T10:21:08;97713.91;;;28.33;58.72
17635;BME280;8936;49.010;12.120;2022-07-29T10:23:35;97708.53;;;27.97;59.80
17635;BME280;8936;49.010;12.120;2022-07-29T10:26:02;97712.44;;;28.50;59.13
17635;BME280;8936;49.010;12.120;2022-07-29T10:28:29;97711.53;;;28.32;57.66
17635;BME280;8936;49.010;12.120;2022-07-29T10:30:58;97702.47;;;28.21;58.62
17635;BME280;8936;49.010;12.120;2022-07-29T10:33:35;97700.56;;;28.35;58.55
17635;BME280;8936;49.010;12.120;2022-07-29T10:36:09;97704.63;;;28.59;57.88
17635;BME280;8936;49.010;12.120;2022-07-29T10:38:43;97706.25;;;28.67;56.78
17635;BME280;8936;49.010;12.120;2022-07-29T10:41:13;97696.34;;;27.91;58.12
17635;BME280;8936;49.010;12.120;2022-07-29T10:43:55;97695.56;;;27.90;58.93
17635;BME280;8936;49.010;12.120;2022-07-29T10:46:22;97693.38;;;28.10;58.57
17635;BME280;8936;49.010;12.120;2022-07-29T10:49:10;97701.41;;;28.43;57.37
17635;BME280;8936;49.010;12.120;2022-07-29T10:51:52;97686.94;;;28.60;57.15
17635;BME280;8936;49.010;12.120;2022-07-29T10:54:35;97691.22;;;28.51;57.12
17635;BME280;8936;49.010;12.120;2022-07-29T10:57:10;97702.16;;;28.36;57.88
17635;BME280;8936;49.010;12.120;2022-07-29T10:59:38;97696.31;;;28.45;57.56
17635;BME280;8936;49.010;12.120;2022-07-29T11:05:00;97684.31;;;28.81;56.47
17635;BME280;8936;49.010;12.120;2022-07-29T11:07:28;97683.88;;;28.65;57.56
17635;BME280;8936;49.010;12.120;2022-07-29T11:12:46;97674.09;;;28.78;57.01
17635;BME280;8936;49.010;12.120;2022-07-29T11:15:13;97682.78;;;28.94;56.99
17635;BME280;8936;49.010;12.120;2022-07-29T11:20:37;97672.19;;;28.93;56.75
17635;BME280;8936;49.010;12.120;2022-07-29T11:23:23;97680.16;;;29.51;55.66
17635;BME280;8936;49.010;12.120;2022-07-29T11:28:35;97675.81;;;29.46;55.22
17635;BME280;8936;49.010;12.120;2022-07-29T11:31:04;97673.44;;;29.24;56.16
17635;BME280;8936;49.010;12.120;2022-07-29T11:33:32;97664.75;;;29.04;56.66
17635;BME280;8936;49.010;12.120;2022-07-29T11:36:10;97662.38;;;29.10;56.83
17635;BME280;8936;49.010;12.120;2022-07-29T11:38:37;97653.03;;;29.60;55.93
17635;BME280;8936;49.010;12.120;2022-07-29T11:41:20;97659.31;;;29.50;55.37
17635;BME280;8936;49.010;12.120;2022-07-29T11:43:46;97661.63;;;29.20;56.02
17635;BME280;8936;49.010;12.120;2022-07-29T11:46:13;97658.47;;;29.11;56.27
17635;BME280;8936;49.010;12.120;2022-07-29T11:48:41;97665.06;;;28.85;57.04
17635;BME280;8936;49.010;12.120;2022-07-29T11:51:10;97673.44;;;29.31;56.32
17635;BME280;8936;49.010;12.120;2022-07-29T11:53:37;97684.88;;;29.40;55.63
17635;BME280;8936;49.010;12.120;2022-07-29T11:56:03;97675.81;;;29.29;55.57
17635;BME280;8936;49.010;12.120;2022-07-29T11:58:30;97671.50;;;29.35;55.43
17635;BME280;8936;49.010;12.120;2022-07-29T12:00:57;97667.13;;;29.20;55.92
17635;BME280;8936;49.010;12.120;2022-07-29T12:03:24;97661.63;;;29.20;56.19
17635;BME280;8936;49.010;12.120;2022-07-29T12:05:50;97671.91;;;29.37;56.00
17635;BME280;8936;49.010;12.120;2022-07-29T12:08:19;97667.19;;;29.55;55.77
17635;BME280;8936;49.010;12.120;2022-07-29T12:10:47;97661.69;;;29.52;55.53
17635;BME280;8936;49.010;12.120;2022-07-29T12:13:14;97664.03;;;29.57;55.86
17635;BME280;8936;49.010;12.120;2022-07-29T12:15:41;97670.31;;;29.29;55.74
17635;BME280;8936;49.010;12.120;2022-07-29T12:18:09;97665.91;;;29.03;55.90
17635;BME280;8936;49.010;12.120;2022-07-29T12:20:36;97654.09;;;28.92;56.41
17635;BME280;8936;49.010;12.120;2022-07-29T12:23:04;97665.53;;;29.05;56.52
17635;BME280;8936;49.010;12.120;2022-07-29T12:25:33;97647.50;;;29.32;56.04
17635;BME280;8936;49.010;12.120;2022-07-29T12:27:59;97651.84;;;29.65;55.76
17635;BME280;8936;49.010;12.120;2022-07-29T12:30:34;97654.19;;;29.84;54.73
17635;BME280;8936;49.010;12.120;2022-07-29T12:33:00;97658.16;;;29.86;54.90
17635;BME280;8936;49.010;12.120;2022-07-29T12:35:26;97660.88;;;29.93;54.76
17635;BME280;8936;49.010;12.120;2022-07-29T12:37:53;97651.81;;;29.72;55.09
17635;BME280;8936;49.010;12.120;2022-07-29T12:40:20;97664.03;;;29.42;54.09
17635;BME280;8936;49.010;12.120;2022-07-29T12:45:30;97642.81;;;29.36;53.84
17635;BME280;8936;49.010;12.120;2022-07-29T12:47:57;97625.50;;;29.53;53.99
17635;BME280;8936;49.010;12.120;2022-07-29T12:50:23;97630.59;;;29.79;54.00
17635;BME280;8936;49.010;12.120;2022-07-29T12:52:50;97633.31;;;30.08;53.89
17635;BME280;8936;49.010;12.120;2022-07-29T12:57:58;97627.75;;;30.29;53.13
17635;BME280;8936;49.010;12.120;2022-07-29T13:00:24;97625.00;;;30.15;53.13
17635;BME280;8936;49.010;12.120;2022-07-29T13:02:55;97616.72;;;30.29;53.14
17635;BME280;8936;49.010;12.120;2022-07-29T13:05:22;97623.06;;;30.12;53.49
17635;BME280;8936;49.010;12.120;2022-07-29T13:07:49;97624.22;;;30.18;53.40
17635;BME280;8936;49.010;12.120;2022-07-29T13:10:16;97622.66;;;30.20;52.54
17635;BME280;8936;49.010;12.120;2022-07-29T13:13:02;97617.06;;;30.38;51.87
17635;BME280;8936;49.010;12.120;2022-07-29T13:15:28;97609.19;;;30.50;51.60
17635;BME280;8936;49.010;12.120;2022-07-29T13:17:56;97602.09;;;30.46;51.00
17635;BME280;8936;49.010;12.120;2022-07-29T13:20:23;97594.66;;;30.36;51.19
17635;BME280;8936;49.010;12.120;2022-07-29T13:22:50;97598.59;;;30.35;51.41